createdAt,value
2018-06-30T00:00:35.146Z,18.50
2018-06-30T00:03:43.517Z,18.40
2018-06-30T00:06:46.589Z,18.30
2018-06-30T00:09:49.642Z,18.20
2018-06-30T00:12:52.761Z,18.20
2018-06-30T00:15:55.827Z,18.20
2018-06-30T00:18:58.897Z,18.10
2018-06-30T00:22:02.005Z,18.10
2018-06-30T00:25:05.292Z,18.10
2018-06-30T00:31:11.192Z,18.10
2018-06-30T00:34:14.262Z,18.10
2018-06-30T00:37:17.354Z,18.10
2018-06-30T00:43:23.282Z,18.00
2018-06-30T00:46:26.345Z,17.90
2018-06-30T00:49:29.426Z,17.90
2018-06-30T00:52:38.317Z,17.80
2018-06-30T00:55:41.398Z,17.90
2018-06-30T00:58:44.473Z,17.80
2018-06-30T01:01:47.545Z,17.70
2018-06-30T01:04:51.421Z,17.70
2018-06-30T01:07:54.785Z,17.70
2018-06-30T01:10:57.849Z,17.70
2018-06-30T01:14:00.917Z,17.70
2018-06-30T01:17:04.005Z,17.50
2018-06-30T01:20:07.333Z,17.50
2018-06-30T01:23:10.429Z,17.40
2018-06-30T01:26:13.469Z,17.40
2018-06-30T01:29:16.529Z,17.30
2018-06-30T01:32:19.596Z,17.20
2018-06-30T01:35:22.672Z,17.00
2018-06-30T01:38:25.733Z,16.90
2018-06-30T01:44:31.681Z,16.80
2018-06-30T01:47:34.757Z,16.80
2018-06-30T01:50:37.832Z,16.70
2018-06-30T01:53:40.970Z,16.60
2018-06-30T01:56:44.037Z,16.60
2018-06-30T01:59:47.131Z,16.50
2018-06-30T02:02:50.225Z,16.50
2018-06-30T02:05:53.305Z,16.40
2018-06-30T02:08:56.388Z,16.40
2018-06-30T02:11:59.454Z,16.40
2018-06-30T02:15:02.527Z,16.30
2018-06-30T02:18:05.599Z,16.20
2018-06-30T02:21:08.685Z,16.20
2018-06-30T02:24:11.749Z,16.20
2018-06-30T02:27:14.821Z,16.10
2018-06-30T02:30:17.901Z,16.10
2018-06-30T02:33:20.982Z,16.10
2018-06-30T02:36:24.113Z,16.00
2018-06-30T02:39:27.194Z,15.90
2018-06-30T02:42:30.275Z,15.80
2018-06-30T02:45:33.493Z,15.70
2018-06-30T02:48:36.582Z,15.70
2018-06-30T02:51:39.644Z,15.60
2018-06-30T02:54:42.719Z,15.50
2018-06-30T02:57:45.809Z,15.50
2018-06-30T03:00:48.919Z,15.40
2018-06-30T03:03:52.018Z,15.40
2018-06-30T03:06:55.125Z,15.40
2018-06-30T03:09:58.211Z,15.30
2018-06-30T03:13:01.283Z,15.40
2018-06-30T03:16:04.386Z,15.30
2018-06-30T03:19:07.485Z,15.30
2018-06-30T03:22:10.569Z,15.20
2018-06-30T03:25:13.677Z,15.20
2018-06-30T03:28:16.746Z,15.10
2018-06-30T03:31:19.824Z,15.10
2018-06-30T03:34:22.933Z,15.10
2018-06-30T03:37:26.041Z,15.00
2018-06-30T03:40:29.121Z,14.90
2018-06-30T03:43:32.216Z,14.80
2018-06-30T03:46:35.310Z,14.80
2018-06-30T03:49:38.413Z,14.70
2018-06-30T03:52:41.566Z,14.70
2018-06-30T03:55:44.669Z,14.70
2018-06-30T03:58:47.754Z,14.70
2018-06-30T04:01:50.830Z,14.60
2018-06-30T04:07:56.759Z,14.60
2018-06-30T04:10:59.854Z,14.60
2018-06-30T04:14:02.950Z,14.60
2018-06-30T04:17:06.036Z,14.60
2018-06-30T04:20:09.257Z,14.50
2018-06-30T04:23:12.336Z,14.50
2018-06-30T04:26:15.373Z,14.50
2018-06-30T04:29:18.451Z,14.50
2018-06-30T04:32:21.587Z,14.60
2018-06-30T04:35:24.663Z,14.60
2018-06-30T04:38:27.733Z,14.50
2018-06-30T04:41:30.825Z,14.50
2018-06-30T04:44:33.921Z,14.40
2018-06-30T04:47:37.083Z,14.50
2018-06-30T04:50:40.137Z,14.60
2018-06-30T04:53:43.675Z,14.60
2018-06-30T04:56:46.787Z,14.90
2018-06-30T04:59:49.861Z,15.20
2018-06-30T05:02:52.917Z,15.70
2018-06-30T05:05:55.969Z,16.20
2018-06-30T05:08:59.012Z,16.70
2018-06-30T05:12:02.090Z,18.50
2018-06-30T05:15:05.440Z,21.10
2018-06-30T05:18:08.493Z,22.90
2018-06-30T05:21:11.577Z,24.20
2018-06-30T05:24:14.655Z,25.60
2018-06-30T05:27:17.734Z,26.40
2018-06-30T05:30:20.857Z,27.30
2018-06-30T05:33:23.967Z,27.80
2018-06-30T05:36:26.988Z,27.60
2018-06-30T05:39:30.225Z,27.50
2018-06-30T05:42:33.279Z,26.90
2018-06-30T05:45:49.493Z,27.10
2018-06-30T05:48:52.532Z,27.30
2018-06-30T05:51:55.619Z,27.90
2018-06-30T05:54:58.692Z,28.10
2018-06-30T05:58:01.766Z,28.20
2018-06-30T06:01:05.122Z,28.50
2018-06-30T06:04:08.180Z,27.90
2018-06-30T06:07:11.262Z,26.70
2018-06-30T06:10:14.371Z,26.40
2018-06-30T06:13:17.447Z,25.90
2018-06-30T06:16:20.636Z,26.40
2018-06-30T06:19:23.712Z,26.50
2018-06-30T06:22:26.769Z,26.60
2018-06-30T06:25:29.855Z,27.50
2018-06-30T06:28:32.934Z,28.00
2018-06-30T06:31:36.039Z,27.60
2018-06-30T06:34:39.118Z,27.40
2018-06-30T06:37:42.210Z,26.70
2018-06-30T06:40:45.301Z,26.50
2018-06-30T06:46:51.261Z,26.30
2018-06-30T06:52:57.232Z,26.80
2018-06-30T06:56:00.299Z,26.90
2018-06-30T06:59:03.373Z,26.90
2018-06-30T07:02:06.475Z,25.80
2018-06-30T07:05:09.541Z,25.80
2018-06-30T07:08:20.732Z,25.50
2018-06-30T07:14:26.528Z,24.40
2018-06-30T07:17:29.620Z,24.60
2018-06-30T07:20:32.685Z,24.60
2018-06-30T07:23:35.911Z,24.40
2018-06-30T07:26:38.825Z,24.30
2018-06-30T07:32:44.745Z,24.90
2018-06-30T07:35:47.791Z,25.80
2018-06-30T07:38:51.577Z,27.20
2018-06-30T07:41:54.654Z,27.40
2018-06-30T07:44:57.718Z,27.40
2018-06-30T07:48:01.021Z,27.60
2018-06-30T07:51:04.161Z,27.10
2018-06-30T07:54:07.221Z,26.80
2018-06-30T07:57:10.294Z,26.90
2018-06-30T08:00:13.386Z,27.20
2018-06-30T08:03:16.445Z,27.40
2018-06-30T08:09:22.369Z,27.30
2018-06-30T08:12:25.455Z,27.40
2018-06-30T08:15:28.497Z,28.00
2018-06-30T08:18:31.573Z,27.80
2018-06-30T08:21:34.669Z,27.50
2018-06-30T08:24:37.733Z,26.60
2018-06-30T08:27:40.824Z,26.30
2018-06-30T08:30:43.910Z,26.30
2018-06-30T08:36:56.485Z,27.00
2018-06-30T08:39:59.577Z,26.90
2018-06-30T08:43:02.673Z,26.80
2018-06-30T08:46:05.932Z,27.10
2018-06-30T08:49:09.435Z,27.00
2018-06-30T08:52:12.529Z,27.30
2018-06-30T08:59:02.099Z,26.00
2018-06-30T09:02:05.184Z,25.50
2018-06-30T09:05:08.260Z,24.80
2018-06-30T09:08:11.349Z,25.00
2018-06-30T09:11:14.418Z,25.20
2018-06-30T09:14:17.502Z,25.60
2018-06-30T09:17:20.615Z,25.90
2018-06-30T09:20:23.661Z,26.30
2018-06-30T09:23:26.801Z,25.70
2018-06-30T09:26:29.876Z,25.40
2018-06-30T09:29:32.968Z,25.40
2018-06-30T09:32:36.027Z,25.60
2018-06-30T09:35:39.093Z,25.30
2018-06-30T09:38:42.173Z,25.10
2018-06-30T09:41:45.245Z,25.00
2018-06-30T09:44:48.431Z,24.80
2018-06-30T09:47:51.549Z,24.50
2018-06-30T09:50:54.815Z,24.30
2018-06-30T09:53:57.983Z,23.70
2018-06-30T09:57:01.163Z,23.30
2018-06-30T10:00:10.118Z,23.30
2018-06-30T10:03:13.275Z,23.00
2018-06-30T10:06:16.494Z,22.60
2018-06-30T10:09:19.785Z,22.30
2018-06-30T10:12:23.070Z,22.10
2018-06-30T10:15:26.394Z,22.00
2018-06-30T10:18:29.664Z,22.10
2018-06-30T10:21:32.882Z,22.30
2018-06-30T10:24:36.140Z,22.40
2018-06-30T10:27:39.324Z,22.40
2018-06-30T10:30:42.539Z,22.20
2018-06-30T10:33:45.743Z,22.10
2018-06-30T10:36:48.929Z,21.90
2018-06-30T10:39:52.078Z,22.00
2018-06-30T10:42:55.309Z,22.10
2018-06-30T10:45:58.531Z,22.30
2018-06-30T10:49:01.704Z,22.30
2018-06-30T10:52:04.870Z,22.40
2018-06-30T10:55:08.046Z,22.40
2018-06-30T10:58:11.446Z,22.50
2018-06-30T11:01:14.632Z,22.30
2018-06-30T11:04:17.971Z,22.30
2018-06-30T11:07:21.141Z,22.10
2018-06-30T11:10:24.345Z,22.10
2018-06-30T11:13:27.590Z,22.00
2018-06-30T11:16:30.775Z,22.00
2018-06-30T11:19:33.986Z,22.10
2018-06-30T11:22:37.183Z,22.10
2018-06-30T11:25:40.386Z,22.00
2018-06-30T11:31:46.541Z,21.90
2018-06-30T11:34:49.744Z,21.90
2018-06-30T11:37:53.063Z,21.90
2018-06-30T11:40:56.361Z,21.90
2018-06-30T11:43:59.474Z,22.00
2018-06-30T11:47:02.695Z,22.00
2018-06-30T11:50:05.994Z,22.00
2018-06-30T11:53:09.186Z,21.90
2018-06-30T11:56:12.402Z,21.80
2018-06-30T11:59:15.578Z,21.80
2018-06-30T12:02:18.713Z,21.80
2018-06-30T12:05:21.826Z,21.80
2018-06-30T12:08:24.897Z,21.90
2018-06-30T12:11:28.008Z,21.80
2018-06-30T12:14:31.072Z,21.90
2018-06-30T12:17:34.183Z,22.10
2018-06-30T12:20:43.213Z,22.20
2018-06-30T12:23:46.305Z,22.40
2018-06-30T12:26:49.457Z,22.40
2018-06-30T12:30:04.429Z,22.50
2018-06-30T12:33:07.481Z,22.50
2018-06-30T12:36:10.550Z,22.60
2018-06-30T12:39:13.786Z,22.50
2018-06-30T12:42:17.565Z,22.50
2018-06-30T12:45:21.644Z,22.40
2018-06-30T12:51:28.165Z,22.60
2018-06-30T12:54:31.319Z,22.60
2018-06-30T12:57:34.303Z,22.70
2018-06-30T13:00:37.357Z,22.70
2018-06-30T13:03:40.446Z,22.70
2018-06-30T13:06:43.493Z,22.60
2018-06-30T13:12:49.430Z,22.40
2018-06-30T13:16:05.611Z,22.50
2018-06-30T13:19:09.641Z,22.50
2018-06-30T13:22:12.852Z,22.50
2018-06-30T13:25:15.942Z,22.70
2018-06-30T13:28:19.029Z,22.70
2018-06-30T13:31:22.221Z,22.70
2018-06-30T13:34:25.388Z,22.50
2018-06-30T13:37:28.441Z,22.50
2018-06-30T13:46:37.279Z,22.50
2018-06-30T13:49:40.345Z,22.50
2018-06-30T13:52:43.500Z,22.70
2018-06-30T13:55:46.497Z,22.60
2018-06-30T13:58:49.592Z,22.50
2018-06-30T14:01:52.681Z,22.40
2018-06-30T14:04:55.909Z,22.40
2018-06-30T14:07:58.993Z,22.40
2018-06-30T14:11:02.067Z,22.30
2018-06-30T14:14:05.694Z,22.40
2018-06-30T14:17:08.761Z,22.30
2018-06-30T14:20:11.845Z,22.30
2018-06-30T14:23:14.981Z,22.30
2018-06-30T14:26:18.097Z,22.20
2018-06-30T14:29:21.161Z,22.30
2018-06-30T14:32:24.225Z,22.20
2018-06-30T14:35:27.290Z,22.20
2018-06-30T14:38:30.353Z,22.30
2018-06-30T14:41:33.414Z,22.30
2018-06-30T14:44:36.489Z,22.30
2018-06-30T14:47:39.569Z,22.40
2018-06-30T14:50:42.641Z,22.30
2018-06-30T14:53:45.769Z,22.30
2018-06-30T14:56:48.985Z,22.30
2018-06-30T14:59:52.063Z,22.20
2018-06-30T15:02:55.185Z,22.30
2018-06-30T15:05:58.369Z,22.30
2018-06-30T15:09:01.620Z,22.30
2018-06-30T15:12:04.942Z,22.40
2018-06-30T15:15:08.458Z,22.40
2018-06-30T15:18:11.744Z,22.40
2018-06-30T15:21:15.030Z,22.30
2018-06-30T15:24:18.227Z,22.20
2018-06-30T15:27:21.378Z,22.20
2018-06-30T15:30:24.619Z,22.20
2018-06-30T15:33:27.761Z,22.20
2018-06-30T15:36:30.993Z,22.20
2018-06-30T15:39:34.254Z,22.20
2018-06-30T15:45:40.546Z,22.20
2018-06-30T15:51:46.859Z,22.20
2018-06-30T15:54:50.326Z,22.20
2018-06-30T15:58:00.114Z,22.20
2018-06-30T16:01:03.281Z,22.20
2018-06-30T16:04:06.383Z,22.10
2018-06-30T16:07:09.442Z,22.00
2018-06-30T16:16:45.062Z,22.00
2018-06-30T16:19:48.282Z,22.00
2018-06-30T16:22:57.865Z,21.90
2018-06-30T16:26:00.913Z,21.90
2018-06-30T16:29:11.504Z,21.90
2018-06-30T16:32:14.573Z,21.90
2018-06-30T16:35:17.690Z,21.80
2018-06-30T16:41:23.546Z,21.80
2018-06-30T16:44:26.641Z,21.70
2018-06-30T16:47:29.717Z,21.70
2018-06-30T16:50:32.769Z,21.70
2018-06-30T16:53:35.845Z,21.70
2018-06-30T16:56:38.910Z,21.60
2018-06-30T16:59:41.963Z,21.50
2018-06-30T17:02:45.082Z,21.40
2018-06-30T17:05:48.163Z,21.40
2018-06-30T17:08:52.237Z,21.40
2018-06-30T17:11:55.296Z,21.40
2018-06-30T17:14:58.517Z,21.30
2018-06-30T17:18:01.509Z,21.20
2018-06-30T17:21:04.577Z,21.20
2018-06-30T17:24:20.133Z,21.20
2018-06-30T17:27:23.236Z,21.20
2018-06-30T17:30:26.630Z,21.10
2018-06-30T17:33:29.700Z,21.00
2018-06-30T17:36:32.764Z,21.00
2018-06-30T17:39:35.848Z,21.10
2018-06-30T17:45:41.794Z,20.90
2018-06-30T17:48:44.874Z,20.90
2018-06-30T17:58:44.341Z,20.70
2018-06-30T18:01:47.414Z,20.70
2018-06-30T18:04:50.515Z,20.60
2018-06-30T18:07:53.571Z,20.50
2018-06-30T18:10:56.650Z,20.50
2018-06-30T18:17:02.574Z,20.40
2018-06-30T18:20:05.672Z,20.30
2018-06-30T18:23:08.829Z,20.30
2018-06-30T18:26:11.922Z,20.30
2018-06-30T18:29:15.005Z,20.20
2018-06-30T18:32:18.057Z,20.20
2018-06-30T18:38:24.034Z,20.00
2018-06-30T18:41:27.121Z,20.00
2018-06-30T18:47:33.051Z,19.80
2018-06-30T18:50:37.867Z,19.80
2018-06-30T18:53:57.041Z,19.70
2018-06-30T18:57:00.121Z,19.70
2018-06-30T19:00:03.207Z,19.60
2018-06-30T19:03:06.734Z,19.40
2018-06-30T19:06:09.808Z,19.40
2018-06-30T19:09:12.885Z,19.30
2018-06-30T19:12:15.989Z,19.20
2018-06-30T19:15:19.056Z,19.10
2018-06-30T19:21:25.017Z,19.00
2018-06-30T19:24:28.097Z,18.90
2018-06-30T19:27:31.177Z,18.90
2018-06-30T19:30:34.266Z,18.80
2018-06-30T19:33:37.342Z,18.70
2018-06-30T19:36:40.527Z,18.60
2018-06-30T19:39:43.525Z,18.50
2018-06-30T19:42:46.605Z,18.50
2018-06-30T19:45:49.703Z,18.40
2018-06-30T19:55:31.460Z,18.10
2018-06-30T19:58:34.534Z,18.00
2018-06-30T20:01:37.645Z,18.00
2018-06-30T20:04:40.726Z,17.90
2018-06-30T20:07:49.363Z,17.80
2018-06-30T20:10:52.442Z,17.70
2018-06-30T20:13:55.494Z,17.70
2018-06-30T20:16:58.565Z,17.60
2018-06-30T20:20:01.646Z,17.50
2018-06-30T20:23:04.838Z,17.50
2018-06-30T20:26:07.910Z,17.50
2018-06-30T20:29:11.029Z,17.40
2018-06-30T20:32:14.082Z,17.40
2018-06-30T20:35:17.185Z,17.30
2018-06-30T20:38:20.254Z,17.20
2018-06-30T20:41:23.314Z,17.10
2018-06-30T20:44:26.400Z,17.00
2018-06-30T20:47:29.462Z,16.90
2018-06-30T20:50:32.558Z,16.90
2018-06-30T20:53:35.598Z,16.80
2018-06-30T20:56:38.661Z,16.80
2018-06-30T21:08:50.349Z,16.70
2018-06-30T21:12:00.105Z,16.60
2018-06-30T21:15:03.193Z,16.60
2018-06-30T21:18:06.417Z,16.50
2018-06-30T21:21:09.690Z,16.40
2018-06-30T21:24:13.007Z,16.40
2018-06-30T21:27:16.170Z,16.50
2018-06-30T21:30:19.398Z,16.40
2018-06-30T21:33:22.585Z,16.40
2018-06-30T21:36:25.982Z,16.40
2018-06-30T21:39:29.074Z,16.40
2018-06-30T21:42:32.373Z,16.40
2018-06-30T21:45:35.679Z,16.30
2018-06-30T21:54:44.798Z,16.20
2018-06-30T21:57:50.274Z,16.10
2018-06-30T22:00:58.871Z,16.00
2018-06-30T22:04:02.035Z,15.90
2018-06-30T22:10:08.826Z,15.90
2018-06-30T22:13:12.018Z,15.80
2018-06-30T22:19:18.195Z,15.70
2018-06-30T22:22:21.390Z,15.70
2018-06-30T22:25:24.542Z,15.60
2018-06-30T22:28:27.757Z,15.50
2018-06-30T22:31:30.967Z,15.50
2018-06-30T22:37:37.055Z,15.50
2018-06-30T22:43:43.253Z,15.30
2018-06-30T22:49:49.473Z,15.30
2018-06-30T22:52:52.682Z,15.30
2018-06-30T22:55:55.880Z,15.30
2018-06-30T22:58:59.082Z,15.20
2018-06-30T23:02:02.378Z,15.20
2018-06-30T23:05:06.059Z,15.20
2018-06-30T23:08:09.315Z,15.20
2018-06-30T23:11:12.530Z,15.10
2018-06-30T23:14:15.732Z,15.10
2018-06-30T23:17:18.947Z,15.10
2018-06-30T23:20:22.168Z,15.10
2018-06-30T23:23:25.347Z,15.10
2018-06-30T23:26:28.538Z,15.10
2018-06-30T23:29:31.724Z,15.10
2018-06-30T23:32:34.995Z,15.00
2018-06-30T23:35:38.185Z,15.00
2018-06-30T23:38:41.384Z,14.90
2018-06-30T23:41:44.505Z,14.90
2018-06-30T23:44:47.739Z,14.80
2018-06-30T23:50:54.653Z,14.80
2018-06-30T23:57:00.777Z,14.70
